Time;durP1;ratioP1;P1;durP2;ratioP2;P2;SDS_P1;SDS_P2;PMS_P1;PMS_P2;Temp;Humidity;BMP_temperature;BMP_pressure;BME280_temperature;BME280_humidity;BME280_pressure;Samples;Min_cycle;Max_cycle;Signal;HPM_P1;HPM_P2
2021/09/15 00:02:18;;;;;;;6.67;3.22;;;;;;;24.00;48.63;100029.17;1830883;77;21037;-70
2021/09/15 00:04:44;;;;;;;3.67;3.02;;;;;;;24.00;48.57;100035.14;1835272;77;20986;-73
2021/09/15 00:07:12;;;;;;;5.62;3.30;;;;;;;23.97;48.54;100031.05;1816824;77;21069;-73
2021/09/15 00:09:38;;;;;;;5.40;3.10;;;;;;;23.95;48.53;100030.45;1815942;78;22122;-74
2021/09/15 00:12:07;;;;;;;4.67;2.92;;;;;;;23.93;48.50;100037.50;1813250;78;21058;-72
2021/09/15 00:14:34;;;;;;;6.78;3.33;;;;;;;23.91;48.51;100033.37;1818229;78;21512;-72
2021/09/15 00:17:00;;;;;;;4.92;2.95;;;;;;;23.90;48.50;100040.70;1826302;77;21006;-73
2021/09/15 00:19:26;;;;;;;4.75;3.47;;;;;;;23.89;48.50;100041.79;1825978;77;21004;-73
2021/09/15 00:21:53;;;;;;;5.15;3.27;;;;;;;23.86;48.51;100040.92;1838716;77;21039;-73
2021/09/15 00:24:21;;;;;;;4.20;3.15;;;;;;;23.86;48.48;100042.27;1830624;77;21991;-73
2021/09/15 00:26:48;;;;;;;4.70;2.77;;;;;;;23.84;48.46;100043.61;1846425;77;21044;-72
2021/09/15 00:29:16;;;;;;;7.85;3.67;;;;;;;23.82;48.41;100043.84;1830774;77;21086;-72
2021/09/15 00:31:42;;;;;;;4.22;2.95;;;;;;;23.80;48.44;100049.21;1827463;77;21069;-72
2021/09/15 00:34:09;;;;;;;5.22;3.42;;;;;;;23.79;48.43;100051.11;1846188;77;21057;-71
2021/09/15 00:36:35;;;;;;;5.12;3.20;;;;;;;23.77;48.38;100046.44;1845284;77;21006;-72
2021/09/15 00:39:03;;;;;;;5.75;3.08;;;;;;;23.75;48.36;100046.68;1836277;77;21671;-73
2021/09/15 00:41:29;;;;;;;5.87;2.77;;;;;;;23.74;48.40;100048.31;1812464;77;20994;-72
2021/09/15 00:44:02;;;;;;;5.78;3.83;;;;;;;23.73;48.46;100049.36;1838064;77;21057;-73
2021/09/15 00:46:31;;;;;;;4.22;2.95;;;;;;;23.69;48.43;100053.10;1807141;77;21109;-72
2021/09/15 00:48:59;;;;;;;3.20;2.83;;;;;;;23.67;48.46;100049.81;1826656;77;20990;-71
2021/09/15 00:51:27;;;;;;;6.17;3.47;;;;;;;23.64;48.48;100053.04;1836020;77;21026;-71
2021/09/15 00:53:54;;;;;;;5.70;3.30;;;;;;;23.63;48.43;100058.16;1838017;77;20982;-72
2021/09/15 00:56:22;;;;;;;5.05;3.15;;;;;;;23.61;48.48;100056.23;1839762;77;21053;-71
2021/09/15 00:58:49;;;;;;;4.47;3.42;;;;;;;23.60;48.45;100060.00;1826232;77;21240;-71
2021/09/15 01:01:17;;;;;;;5.85;2.92;;;;;;;23.58;48.43;100060.78;1842560;77;21072;-71
2021/09/15 01:03:45;;;;;;;3.62;3.00;;;;;;;23.57;48.44;100060.51;1818489;77;21033;-71
2021/09/15 01:06:15;;;;;;;4.90;3.08;;;;;;;23.55;48.50;100058.58;1822674;77;21555;-71
2021/09/15 01:08:45;;;;;;;3.25;2.90;;;;;;;23.55;48.41;100062.64;1830760;77;21497;-72
2021/09/15 01:11:14;;;;;;;4.37;3.47;;;;;;;23.53;48.39;100062.08;1844205;77;21087;-71
2021/09/15 01:13:44;;;;;;;6.45;3.40;;;;;;;23.50;48.38;100058.48;1844077;77;22246;-72
2021/09/15 01:16:23;;;;;;;3.80;3.40;;;;;;;23.49;48.36;100062.28;1836495;77;21002;-71
2021/09/15 01:18:51;;;;;;;3.92;2.95;;;;;;;23.47;48.34;100061.67;1841347;77;21009;-72
2021/09/15 01:21:38;;;;;;;4.03;2.80;;;;;;;23.45;48.31;100063.81;1837373;77;21072;-71
2021/09/15 01:24:07;;;;;;;4.42;3.33;;;;;;;23.44;48.27;100059.47;1843186;76;21955;-71
2021/09/15 01:26:44;;;;;;;4.65;3.33;;;;;;;23.40;48.19;100047.48;1837016;77;20985;-73
2021/09/15 01:29:32;;;;;;;3.35;3.05;;;;;;;23.40;48.16;100058.33;1839208;77;21071;-72
2021/09/15 01:32:06;;;;;;;4.95;3.30;;;;;;;;;;1828178;77;21026;-72
2021/09/15 01:34:37;;;;;;;4.45;3.00;;;;;;;23.36;48.05;100068.83;1845785;77;21485;-72
2021/09/15 01:37:07;;;;;;;3.70;3.10;;;;;;;23.35;48.02;100064.46;1805276;77;21138;-71
2021/09/15 01:39:36;;;;;;;4.58;2.80;;;;;;;23.32;48.01;100054.94;1841598;77;21104;-71
2021/09/15 01:42:04;;;;;;;4.03;3.58;;;;;;;23.32;47.96;100056.84;1844604;77;21053;-72
2021/09/15 01:44:46;;;;;;;3.75;3.20;;;;;;;23.31;47.92;100056.02;1818900;77;21114;-71
2021/09/15 01:47:15;;;;;;;3.90;2.98;;;;;;;23.31;47.92;100056.02;1843318;77;21049;-72
2021/09/15 01:49:42;;;;;;;4.10;3.08;;;;;;;23.29;47.87;100050.00;1768464;79;21811;-71
2021/09/15 01:52:11;;;;;;;5.33;3.22;;;;;;;23.28;47.84;100048.37;1808014;78;21033;-71
2021/09/15 01:54:38;;;;;;;5.30;3.08;;;;;;;23.27;47.85;100052.12;1776183;80;21585;-72
2021/09/15 01:57:04;;;;;;;3.15;2.85;;;;;;;23.27;47.93;100052.12;1795770;77;21064;-71
2021/09/15 01:59:49;;;;;;;6.03;3.02;;;;;;;23.24;47.89;100053.98;1770051;80;21066;-71
2021/09/15 02:02:18;;;;;;;3.15;2.85;;;;;;;23.22;47.85;100056.12;1778612;79;21250;-71
2021/09/15 02:04:49;;;;;;;5.85;3.58;;;;;;;23.21;47.90;100054.47;1773501;80;21243;-70
2021/09/15 02:07:17;;;;;;;3.27;2.75;;;;;;;23.20;47.88;100054.20;1762286;80;21013;-71
2021/09/15 02:09:48;;;;;;;4.62;3.00;;;;;;;23.18;47.84;100057.69;1800616;77;21510;-73
2021/09/15 02:12:18;;;;;;;4.45;3.00;;;;;;;23.16;47.79;100057.92;1776168;80;21517;-72
2021/09/15 02:14:45;;;;;;;3.20;2.83;;;;;;;23.16;47.73;100063.34;1848255;77;21176;-71
2021/09/15 02:17:14;;;;;;;4.80;3.15;;;;;;;23.16;47.70;100067.95;1840249;77;21443;-71
2021/09/15 02:19:41;;;;;;;3.77;2.80;;;;;;;23.14;47.67;100068.18;1809190;78;21033;-71
2021/09/15 02:22:21;;;;;;;3.80;2.60;;;;;;;23.12;47.64;100063.54;1841641;77;21517;-72
2021/09/15 02:24:51;;;;;;;3.37;2.95;;;;;;;23.12;47.57;100068.95;1842720;77;20994;-71
2021/09/15 02:27:21;;;;;;;3.10;2.80;;;;;;;23.11;47.52;100070.02;1801956;77;21215;-72
2021/09/15 02:29:48;;;;;;;3.85;2.58;;;;;;;23.11;47.48;100069.20;1829975;77;21116;-72
2021/09/15 02:33:20;;;;;;;3.90;3.00;;;;;;;23.14;47.34;100072.76;1781226;79;22632;-73
2021/09/15 02:35:58;;;;;;;5.60;3.27;;;;;;;23.08;47.29;100073.73;1743239;81;21092;-72
2021/09/15 02:38:31;;;;;;;;;;;;;;;23.07;47.29;100074.27;1748235;81;21132;-72
2021/09/15 02:41:05;;;;;;;5.45;3.20;;;;;;;23.05;47.17;100072.88;1749006;80;20257;-72
2021/09/15 02:43:43;;;;;;;3.40;3.10;;;;;;;23.01;47.17;100070.34;1751237;80;21051;-73
2021/09/15 02:46:31;;;;;;;3.65;3.33;;;;;;;23.00;47.09;100072.20;1754451;81;21048;-71
2021/09/15 02:49:00;;;;;;;;;;;;;;;22.97;47.08;100073.52;1757204;81;21116;-73
2021/09/15 02:51:29;;;;;;;5.72;2.90;;;;;;;22.96;47.03;100075.92;1755121;81;21196;-73
2021/09/15 02:53:57;;;;;;;4.60;2.65;;;;;;;22.91;47.10;100073.14;1753391;81;21061;-73
2021/09/15 02:56:31;;;;;;;3.72;2.83;;;;;;;22.91;47.18;100067.72;1749539;80;21039;-73
2021/09/15 02:58:59;;;;;;;4.47;2.98;;;;;;;22.90;47.19;100071.48;1707006;81;21096;-72
2021/09/15 03:01:36;;;;;;;3.58;2.55;;;;;;;22.91;47.16;100073.67;1712079;81;21498;-71
2021/09/15 03:04:08;;;;;;;3.42;2.92;;;;;;;22.90;47.12;100071.48;1693296;81;21094;-73
2021/09/15 03:06:37;;;;;;;3.12;2.77;;;;;;;22.90;47.04;100075.55;1699260;81;21073;-72
2021/09/15 03:09:05;;;;;;;3.20;2.35;;;;;;;22.89;47.00;100082.04;1695580;81;21132;-73
2021/09/15 03:11:33;;;;;;;4.35;2.90;;;;;;;22.89;47.02;100083.39;1704458;83;21510;-73
2021/09/15 03:14:01;;;;;;;5.30;3.20;;;;;;;22.88;46.96;100080.38;1709506;83;21023;-73
2021/09/15 03:16:30;;;;;;;4.58;2.90;;;;;;;22.88;46.92;100077.67;1717469;82;21921;-71
2021/09/15 03:18:59;;;;;;;4.80;3.12;;;;;;;22.87;46.86;100078.75;1712127;82;21592;-73
2021/09/15 03:21:27;;;;;;;4.10;2.95;;;;;;;22.86;46.91;100081.16;1692338;83;21057;-73
2021/09/15 03:23:54;;;;;;;5.08;3.30;;;;;;;22.86;46.86;100088.47;1721226;82;21568;-72
2021/09/15 03:26:21;;;;;;;6.72;3.00;;;;;;;22.86;46.87;100089.81;1699379;83;21207;-73
2021/09/15 03:28:47;;;;;;;5.83;3.27;;;;;;;22.85;46.82;100089.52;1716445;83;21153;-73
2021/09/15 03:31:14;;;;;;;6.10;3.10;;;;;;;22.84;46.82;100085.17;1703397;83;21120;-70
2021/09/15 03:33:41;;;;;;;5.60;3.02;;;;;;;22.85;46.75;100088.16;1706059;83;21658;-72
2021/09/15 03:36:09;;;;;;;9.43;3.75;;;;;;;22.84;46.76;100091.95;1695671;83;21039;-72
2021/09/15 03:38:36;;;;;;;6.53;3.10;;;;;;;22.84;46.68;100096.83;1705074;82;21125;-73
2021/09/15 03:41:03;;;;;;;7.65;3.12;;;;;;;22.84;46.64;100100.08;1696703;83;21774;-73
2021/09/15 03:43:30;;;;;;;5.75;3.25;;;;;;;22.83;46.58;100098.41;1708697;83;21025;-73
2021/09/15 03:45:57;;;;;;;6.65;3.37;;;;;;;22.82;46.57;100098.95;1702678;83;21593;-74
2021/09/15 03:48:23;;;;;;;5.50;2.92;;;;;;;22.82;46.45;100103.55;1707061;83;21091;-73
2021/09/15 03:50:52;;;;;;;7.15;3.10;;;;;;;22.82;46.45;100102.20;1708818;83;21074;-73
2021/09/15 03:53:18;;;;;;;7.78;3.30;;;;;;;22.80;46.44;100099.73;1689027;83;21194;-73
2021/09/15 03:55:47;;;;;;;7.78;3.45;;;;;;;22.80;46.36;100101.62;1699392;83;21096;-73
2021/09/15 03:58:14;;;;;;;4.85;3.55;;;;;;;22.80;46.41;100101.08;1747529;82;21113;-73
2021/09/15 04:00:40;;;;;;;5.67;3.33;;;;;;;22.80;46.33;100102.97;1739501;82;21471;-72
2021/09/15 04:03:08;;;;;;;6.95;4.28;;;;;;;22.78;46.29;100106.73;1747969;82;21041;-72
2021/09/15 04:05:36;;;;;;;6.17;4.00;;;;;;;22.78;46.33;100109.98;1741064;81;21129;-72
2021/09/15 04:08:04;;;;;;;6.17;4.28;;;;;;;22.78;46.28;100104.56;1733928;81;21011;-73
2021/09/15 04:10:31;;;;;;;7.30;4.05;;;;;;;22.77;46.27;100106.97;1744487;81;22142;-73
2021/09/15 04:12:59;;;;;;;5.53;3.95;;;;;;;22.77;46.30;100104.25;1747723;82;21035;-73
2021/09/15 04:15:26;;;;;;;7.12;3.90;;;;;;;22.77;46.23;100105.61;1747427;80;21066;-74
2021/09/15 04:17:54;;;;;;;6.62;4.30;;;;;;;22.77;46.20;100101.55;1747825;82;21617;-74
2021/09/15 04:20:22;;;;;;;7.12;4.37;;;;;;;22.78;46.18;100101.85;1743608;81;21085;-72
2021/09/15 04:22:50;;;;;;;5.53;3.87;;;;;;;22.78;46.16;100107.27;1742809;81;21030;-72
2021/09/15 04:33:36;;;;;;;6.58;4.25;;;;;;;22.76;46.09;100110.21;1741994;81;21538;-75
2021/09/15 04:36:04;;;;;;;9.55;4.10;;;;;;;22.76;46.08;100115.63;1738037;82;21080;-73
2021/09/15 04:38:31;;;;;;;7.75;3.87;;;;;;;22.75;45.99;100119.41;1705222;82;20991;-75
2021/09/15 04:40:58;;;;;;;5.87;3.87;;;;;;;22.77;45.97;100121.86;1742549;81;21022;-75
2021/09/15 04:43:25;;;;;;;9.53;4.42;;;;;;;22.76;45.92;100118.34;1676908;84;21130;-74
2021/09/15 04:45:52;;;;;;;5.90;4.55;;;;;;;22.76;45.80;100126.46;1723443;82;21012;-74
2021/09/15 04:48:19;;;;;;;6.05;4.60;;;;;;;22.76;45.84;100122.40;1742244;82;21051;-74
2021/09/15 04:50:45;;;;;;;6.47;4.15;;;;;;;22.77;45.79;100125.92;1746347;80;21034;-74
2021/09/15 04:53:12;;;;;;;8.20;4.50;;;;;;;22.79;45.83;100137.34;1701205;82;21003;-74
2021/09/15 04:55:39;;;;;;;6.42;3.92;;;;;;;22.80;45.67;100135.48;1722164;82;21132;-75
2021/09/15 04:58:06;;;;;;;7.75;4.28;;;;;;;22.79;45.63;100137.34;1741721;81;21061;-74
2021/09/15 05:00:33;;;;;;;8.18;4.15;;;;;;;22.82;45.54;100139.58;1709496;82;21014;-76
2021/09/15 05:03:01;;;;;;;5.37;3.70;;;;;;;22.82;45.53;100138.23;1741271;81;21062;-75
2021/09/15 05:05:38;;;;;;;6.50;3.87;;;;;;;22.84;45.49;100140.16;1681041;82;21512;-73
2021/09/15 05:08:07;;;;;;;7.17;4.08;;;;;;;22.85;45.38;100142.33;1730998;82;21089;-73
2021/09/15 05:10:33;;;;;;;8.25;3.60;;;;;;;22.87;45.46;100146.47;1740235;81;21603;-73
2021/09/15 05:13:00;;;;;;;6.22;3.92;;;;;;;22.88;45.43;100145.39;1735288;82;21021;-76
2021/09/15 05:15:27;;;;;;;9.93;4.22;;;;;;;22.90;45.41;100149.22;1741106;82;21090;-75
2021/09/15 05:17:56;;;;;;;8.88;4.70;;;;;;;22.91;45.46;100155.76;1692962;82;21522;-74
2021/09/15 05:20:24;;;;;;;8.33;4.33;;;;;;;22.93;45.56;100156.88;1706436;82;21139;-74
2021/09/15 05:22:52;;;;;;;8.05;3.98;;;;;;;22.94;45.57;100157.97;1661383;84;21104;-74
2021/09/15 05:25:21;;;;;;;5.08;3.77;;;;;;;22.95;45.61;100158.27;1696073;82;21084;-73
2021/09/15 05:27:49;;;;;;;4.72;3.67;;;;;;;22.96;45.57;100157.20;1737368;82;21039;-72
2021/09/15 05:30:18;;;;;;;6.03;3.85;;;;;;;22.97;45.55;100160.22;1737215;81;21042;-72
2021/09/15 05:32:46;;;;;;;8.38;3.75;;;;;;;22.99;45.35;100168.11;1739925;81;21242;-72
2021/09/15 05:35:14;;;;;;;5.55;3.92;;;;;;;22.99;45.36;100170.00;1706499;82;21524;-74
2021/09/15 05:37:43;;;;;;;9.80;3.80;;;;;;;22.97;45.57;100175.11;1737159;82;21479;-73
2021/09/15 05:40:09;;;;;;;7.80;4.25;;;;;;;22.99;45.91;100172.71;1740870;81;21034;-73
2021/09/15 05:42:38;;;;;;;7.37;4.20;;;;;;;23.00;46.33;100177.05;1714313;82;21078;-73
2021/09/15 05:45:06;;;;;;;7.87;4.15;;;;;;;23.02;46.52;100172.21;1736892;81;21130;-73
2021/09/15 05:47:34;;;;;;;7.10;3.83;;;;;;;23.03;46.74;100173.36;1735087;81;21042;-75
2021/09/15 05:50:03;;;;;;;8.38;5.83;;;;;;;23.04;46.70;100176.34;1725544;81;21034;-75
2021/09/15 05:52:31;;;;;;;7.25;4.92;;;;;;;23.07;46.68;100183.20;1729260;81;21045;-73
2021/09/15 05:54:59;;;;;;;6.45;4.58;;;;;;;23.08;46.55;100183.47;1725522;82;21038;-72
2021/09/15 05:57:26;;;;;;;6.45;4.33;;;;;;;23.10;46.43;100186.77;1735346;82;21561;-72
2021/09/15 05:59:53;;;;;;;5.83;3.95;;;;;;;23.11;46.05;100183.00;1722997;82;21021;-72
2021/09/15 06:02:20;;;;;;;5.78;4.00;;;;;;;23.09;45.78;100190.02;1735226;80;21523;-75
2021/09/15 06:04:46;;;;;;;12.00;4.65;;;;;;;23.09;46.18;100187.84;1727467;80;21030;-74
2021/09/15 06:07:18;;;;;;;9.48;4.15;;;;;;;23.12;46.23;100188.19;1744778;80;21062;-75
2021/09/15 06:09:46;;;;;;;7.10;3.90;;;;;;;23.16;46.21;100189.89;1699957;82;21927;-73
2021/09/15 06:12:13;;;;;;;15.58;5.17;;;;;;;23.20;46.04;100187.50;1687780;82;21115;-72
2021/09/15 06:14:39;;;;;;;8.40;4.22;;;;;;;23.23;45.94;100192.45;1714680;82;21053;-75
2021/09/15 06:17:06;;;;;;;8.88;4.17;;;;;;;23.26;45.77;100195.50;1704096;82;21009;-76
2021/09/15 06:19:33;;;;;;;10.82;4.33;;;;;;;23.30;45.65;100193.95;1739038;81;21088;-76
2021/09/15 06:22:09;;;;;;;7.25;3.67;;;;;;;23.34;45.62;100195.66;1720797;81;21026;-72
2021/09/15 06:24:53;;;;;;;6.22;4.65;;;;;;;23.36;45.61;100198.95;1712030;80;21054;-74
2021/09/15 06:27:18;;;;;;;12.23;5.25;;;;;;;23.42;45.46;100193.09;1736071;80;21057;-72
2021/09/15 06:29:45;;;;;;;7.12;4.00;;;;;;;23.46;45.33;100199.13;1745816;81;21603;-73
2021/09/15 06:32:16;;;;;;;8.15;4.58;;;;;;;23.48;45.25;100195.64;1745633;81;21132;-72
2021/09/15 06:34:45;;;;;;;8.53;4.47;;;;;;;23.52;44.96;100195.45;1674655;83;22170;-72
2021/09/15 06:37:13;;;;;;;7.33;4.78;;;;;;;23.55;44.77;100194.97;1686300;84;21070;-71
2021/09/15 06:39:41;;;;;;;7.78;4.10;;;;;;;23.58;44.49;100201.79;1661958;85;21165;-74
2021/09/15 06:42:07;;;;;;;8.85;4.37;;;;;;;23.60;44.37;100200.20;1691620;84;21098;-74
2021/09/15 06:44:34;;;;;;;7.78;4.37;;;;;;;23.62;44.34;100202.95;1737451;81;21061;-72
2021/09/15 06:47:01;;;;;;;8.05;5.05;;;;;;;23.65;44.28;100201.66;1730315;81;21170;-72
2021/09/15 06:49:27;;;;;;;9.73;4.35;;;;;;;23.68;44.09;100206.06;1732106;81;21538;-74
2021/09/15 06:51:55;;;;;;;14.58;5.03;;;;;;;23.70;43.95;100201.22;1697081;82;21035;-75
2021/09/15 06:54:22;;;;;;;7.60;5.15;;;;;;;23.73;43.76;100214.28;1683343;83;21076;-74
2021/09/15 06:56:49;;;;;;;6.95;4.40;;;;;;;23.75;43.64;100212.14;1672409;83;21034;-74
2021/09/15 06:59:15;;;;;;;8.53;4.78;;;;;;;23.78;43.51;100216.79;1737852;82;21070;-74
2021/09/15 07:01:43;;;;;;;8.53;4.47;;;;;;;23.80;43.52;100216.04;1742069;81;21026;-72
2021/09/15 07:04:10;;;;;;;10.58;4.40;;;;;;;23.83;43.42;100213.66;1745537;80;21167;-75
2021/09/15 07:06:37;;;;;;;8.88;4.45;;;;;;;23.86;43.31;100206.95;1737074;82;21344;-72
2021/09/15 07:09:04;;;;;;;9.43;3.83;;;;;;;23.88;43.13;100210.23;1740351;80;21073;-74
2021/09/15 07:11:32;;;;;;;6.90;4.40;;;;;;;23.91;43.02;100217.87;1684318;82;21630;-71
2021/09/15 07:14:03;;;;;;;7.45;4.10;;;;;;;23.94;42.74;100219.56;1738570;82;21042;-71
2021/09/15 07:16:30;;;;;;;6.83;4.20;;;;;;;23.96;42.39;100214.44;1742792;81;21097;-72
2021/09/15 07:18:59;;;;;;;7.08;4.17;;;;;;;23.96;42.35;100212.55;1708444;82;21023;-73
2021/09/15 07:21:27;;;;;;;5.75;3.72;;;;;;;23.98;42.04;100210.41;1733515;80;21043;-60
2021/09/15 07:23:53;;;;;;;6.53;4.70;;;;;;;24.00;42.06;100216.41;1737729;80;21723;-55
2021/09/15 07:26:20;;;;;;;5.33;3.98;;;;;;;24.02;42.08;100213.45;1744533;81;21033;-56
2021/09/15 07:28:46;;;;;;;8.25;4.22;;;;;;;24.05;41.92;100212.44;1697812;82;21018;-54
2021/09/15 07:31:13;;;;;;;5.90;3.77;;;;;;;24.07;41.64;100211.66;1743871;80;21507;-57
2021/09/15 07:33:40;;;;;;;6.87;3.95;;;;;;;24.09;41.63;100212.22;1740256;80;21038;-56
2021/09/15 07:36:06;;;;;;;5.67;3.60;;;;;;;24.12;41.34;100208.19;1740974;82;21128;-57
2021/09/15 07:38:33;;;;;;;11.43;4.47;;;;;;;24.13;41.37;100207.95;1681346;82;21036;-58
2021/09/15 07:41:00;;;;;;;7.03;3.40;;;;;;;24.17;41.61;100206.92;1702287;82;21102;-60
2021/09/15 07:43:26;;;;;;;9.58;4.65;;;;;;;24.21;41.93;100204.00;1709891;82;21522;-60
2021/09/15 07:45:53;;;;;;;18.82;4.20;;;;;;;24.27;42.08;100210.33;1727979;82;20996;-62
2021/09/15 07:48:19;;;;;;;6.47;3.77;;;;;;;24.32;42.13;100201.73;1737490;82;21145;-71
2021/09/15 07:50:48;;;;;;;7.60;3.50;;;;;;;24.38;42.18;100206.71;1739878;81;21078;-72
2021/09/15 07:53:15;;;;;;;7.55;3.33;;;;;;;24.44;42.26;100203.55;1737407;80;21029;-71
2021/09/15 07:55:42;;;;;;;6.33;3.92;;;;;;;24.48;42.29;100206.86;1741555;81;21478;-73
2021/09/15 07:58:09;;;;;;;8.03;3.77;;;;;;;24.53;42.32;100209.69;1706382;82;21001;-72
2021/09/15 08:00:36;;;;;;;5.55;3.98;;;;;;;24.58;42.35;100199.97;1740967;81;21467;-74
2021/09/15 08:03:02;;;;;;;8.60;3.92;;;;;;;24.62;42.31;100206.55;1709528;82;21031;-70
2021/09/15 08:05:29;;;;;;;4.85;3.62;;;;;;;24.66;42.30;100203.61;1741028;81;21522;-74
2021/09/15 08:07:57;;;;;;;4.25;3.65;;;;;;;24.70;42.21;100204.20;1739874;80;21527;-71
2021/09/15 08:10:24;;;;;;;4.67;3.58;;;;;;;24.75;42.22;100198.58;1738940;80;21078;-70
2021/09/15 08:12:52;;;;;;;6.03;3.17;;;;;;;24.79;42.22;100205.16;1697764;82;21312;-71
2021/09/15 08:15:18;;;;;;;4.83;3.22;;;;;;;24.82;42.19;100209.55;1700370;82;21025;-74
2021/09/15 08:17:46;;;;;;;9.93;3.85;;;;;;;24.85;42.16;100204.14;1734205;82;21646;-74
2021/09/15 08:20:13;;;;;;;3.98;3.45;;;;;;;24.89;42.14;100203.37;1694228;82;21017;-71
2021/09/15 08:22:39;;;;;;;3.80;2.98;;;;;;;24.93;42.09;100200.44;1707450;82;21327;-72
2021/09/15 08:25:07;;;;;;;3.87;2.95;;;;;;;24.96;41.97;100198.32;1741333;82;21091;-72
2021/09/15 08:27:33;;;;;;;5.42;3.17;;;;;;;25.00;41.87;100202.98;1741923;80;21069;-71
2021/09/15 08:30:00;;;;;;;4.53;3.00;;;;;;;25.03;41.84;100203.82;1738025;80;21017;-73
2021/09/15 08:32:26;;;;;;;5.37;2.95;;;;;;;25.06;41.79;100192.45;1741815;80;21059;-72
2021/09/15 08:34:52;;;;;;;4.03;3.08;;;;;;;25.10;41.78;100199.57;1741234;81;21042;-71
2021/09/15 08:37:19;;;;;;;5.33;3.02;;;;;;;25.14;41.71;100201.25;1738547;81;21130;-70
2021/09/15 08:39:45;;;;;;;4.42;2.92;;;;;;;25.18;41.65;100198.30;1749448;80;21767;-70
2021/09/15 08:42:12;;;;;;;7.05;3.08;;;;;;;25.21;41.58;100201.89;1739432;82;21050;-69
2021/09/15 08:44:39;;;;;;;5.50;3.00;;;;;;;25.24;41.57;100198.12;1672998;82;21048;-70
2021/09/15 08:47:06;;;;;;;5.35;2.95;;;;;;;25.28;41.61;100191.13;1739137;80;21042;-69
2021/09/15 08:49:33;;;;;;;5.97;2.70;;;;;;;25.31;41.60;100194.69;1733923;82;21137;-69
2021/09/15 08:51:59;;;;;;;5.42;2.75;;;;;;;25.35;41.53;100193.64;1741659;82;21625;-71
2021/09/15 08:54:27;;;;;;;4.65;2.75;;;;;;;25.39;41.53;100193.41;1741798;81;21062;-70
2021/09/15 08:56:54;;;;;;;9.18;3.12;;;;;;;25.44;41.56;100188.55;1736747;81;21066;-69
2021/09/15 08:59:20;;;;;;;4.55;2.72;;;;;;;25.46;41.58;100188.59;1707256;82;21101;-70
2021/09/15 09:01:48;;;;;;;5.20;2.95;;;;;;;25.52;41.52;100182.67;1700407;82;21862;-71
2021/09/15 09:04:15;;;;;;;2.77;2.45;;;;;;;25.56;41.49;100188.43;1654362;84;21620;-70
2021/09/15 09:06:46;;;;;;;3.83;2.52;;;;;;;25.60;41.40;100188.19;1676611;83;21061;-71
2021/09/15 09:09:13;;;;;;;2.80;2.58;;;;;;;25.65;41.28;100181.42;1741993;81;20995;-78
2021/09/15 09:11:41;;;;;;;3.27;2.65;;;;;;;25.69;41.21;100186.11;1676627;82;21047;-71
2021/09/15 09:14:09;;;;;;;5.47;2.30;;;;;;;25.74;41.08;100188.59;1725303;82;21143;-70
2021/09/15 09:16:42;;;;;;;3.20;2.70;;;;;;;25.78;40.97;100184.27;1714000;82;21070;-72
2021/09/15 09:19:15;;;;;;;5.10;2.60;;;;;;;25.81;40.86;100183.22;1696814;82;21036;-70
2021/09/15 09:21:48;;;;;;;3.12;2.50;;;;;;;25.86;40.75;100183.80;1693744;82;21030;-70
2021/09/15 09:24:22;;;;;;;2.83;2.10;;;;;;;25.90;40.65;100183.55;1672500;82;21123;-70
2021/09/15 09:27:02;;;;;;;5.78;2.52;;;;;;;25.95;40.56;100182.28;1694362;82;21066;-70
2021/09/15 09:29:37;;;;;;;2.95;2.55;;;;;;;25.99;40.53;100181.23;1689597;82;21063;-70
2021/09/15 09:32:13;;;;;;;3.77;2.40;;;;;;;26.04;40.41;100178.55;1717451;82;21026;-71
2021/09/15 09:34:49;;;;;;;4.95;2.58;;;;;;;26.07;40.42;100169.30;1745343;81;21056;-70
2021/09/15 09:37:18;;;;;;;4.25;2.40;;;;;;;26.12;40.29;100169.90;1738916;81;21006;-70
2021/09/15 09:39:49;;;;;;;5.42;2.77;;;;;;;26.16;40.16;100166.12;1736409;81;21332;-69
2021/09/15 09:42:30;;;;;;;5.12;2.62;;;;;;;26.20;40.00;100164.52;1741497;81;21009;-70
2021/09/15 09:45:14;;;;;;;5.45;2.45;;;;;;;26.24;39.87;100158.81;1742648;81;21038;-69
2021/09/15 09:47:40;;;;;;;4.60;2.77;;;;;;;26.29;39.71;100157.50;1748803;81;21037;-72
2021/09/15 09:50:16;;;;;;;3.02;2.50;;;;;;;26.32;39.56;100162.41;1735935;81;21565;-69
2021/09/15 09:53:01;;;;;;;4.45;2.65;;;;;;;26.37;39.41;100163.81;1754885;81;21797;-71
2021/09/15 09:55:31;;;;;;;4.58;2.98;;;;;;;26.42;39.27;100162.45;1752720;80;21027;-70
2021/09/15 09:57:57;;;;;;;3.42;2.27;;;;;;;26.46;39.19;100153.22;1751483;81;21045;-71
2021/09/15 10:00:25;;;;;;;3.72;2.98;;;;;;;26.49;39.06;100148.07;1751882;81;21117;-70
2021/09/15 10:02:51;;;;;;;5.28;2.50;;;;;;;26.55;39.00;100149.47;1751030;81;21061;-68
2021/09/15 10:05:19;;;;;;;2.72;2.47;;;;;;;26.59;38.81;100151.42;1746982;81;21256;-71
2021/09/15 10:07:47;;;;;;;2.62;2.27;;;;;;;26.64;38.66;100152.83;1746064;81;21038;-71
2021/09/15 10:10:19;;;;;;;5.42;2.58;;;;;;;26.69;38.50;100150.66;1738439;81;21100;-70
2021/09/15 10:12:49;;;;;;;3.33;2.52;;;;;;;26.74;38.36;100143.88;1746532;81;21058;-72
2021/09/15 10:15:15;;;;;;;3.50;2.60;;;;;;;26.79;38.19;100133.01;1741237;81;21114;-71
2021/09/15 10:17:52;;;;;;;4.17;2.35;;;;;;;26.84;38.06;100138.45;1712350;83;21144;-71
2021/09/15 10:20:27;;;;;;;5.17;2.77;;;;;;;26.89;37.98;100132.23;1711128;83;21581;-71
2021/09/15 10:22:54;;;;;;;6.15;2.75;;;;;;;26.94;37.77;100130.86;1704340;82;21079;-70
2021/09/15 10:25:36;;;;;;;3.02;2.40;;;;;;;26.98;37.63;100129.23;1677922;83;21072;-69
2021/09/15 10:28:06;;;;;;;2.70;2.22;;;;;;;27.04;37.56;100135.52;1702821;82;21484;-70
2021/09/15 10:30:41;;;;;;;2.65;2.42;;;;;;;27.10;37.37;100126.30;1710526;82;21184;-70
2021/09/15 10:33:07;;;;;;;6.37;2.60;;;;;;;27.14;37.17;100127.92;1690310;84;21066;-70
2021/09/15 10:35:45;;;;;;;2.12;1.92;;;;;;;27.18;36.99;100120.31;1683627;84;21104;-70
2021/09/15 10:38:16;;;;;;;2.65;2.45;;;;;;;27.23;36.79;100116.21;1738246;82;21530;-70
2021/09/15 10:40:43;;;;;;;4.75;2.45;;;;;;;27.29;36.65;100125.81;1735485;82;21121;-70
2021/09/15 10:43:42;;;;;;;3.25;2.60;;;;;;;27.35;36.65;100122.00;1715104;82;21777;-70
2021/09/15 10:46:22;;;;;;;6.92;4.30;;;;;;;27.39;36.54;100120.36;1741427;82;20996;-70
2021/09/15 10:49:26;;;;;;;3.27;2.65;;;;;;;27.44;36.35;100114.92;1716288;81;21003;-70
2021/09/15 10:52:17;;;;;;;4.83;2.83;;;;;;;27.49;36.16;100109.48;1737043;82;21011;-72
2021/09/15 10:54:57;;;;;;;3.72;2.33;;;;;;;27.55;36.01;100108.95;1732589;82;21082;-70
2021/09/15 10:57:34;;;;;;;2.95;2.40;;;;;;;27.59;35.88;100108.11;1726475;81;21217;-70
2021/09/15 11:00:11;;;;;;;3.42;2.70;;;;;;;27.64;35.86;100108.13;1740423;81;21042;-70
2021/09/15 11:02:41;;;;;;;3.60;2.45;;;;;;;27.70;35.68;100103.48;1736984;80;21035;-71
2021/09/15 11:05:31;;;;;;;4.65;2.60;;;;;;;27.74;35.52;100103.21;1744305;81;21086;-71
2021/09/15 11:07:58;;;;;;;4.65;2.60;;;;;;;27.80;35.50;100104.03;1741498;80;21592;-70
2021/09/15 11:10:37;;;;;;;3.47;2.72;;;;;;;27.86;34.07;100094.74;1738851;82;21103;-72
2021/09/15 11:13:10;;;;;;;2.37;2.10;;;;;;;27.92;32.07;100090.12;1743910;81;21023;-75
2021/09/15 11:15:41;;;;;;;5.47;3.02;;;;;;;27.95;30.87;100089.55;1735810;81;21129;-73
2021/09/15 11:18:29;;;;;;;2.65;2.45;;;;;;;27.97;30.01;100081.38;1738446;82;21472;-71
2021/09/15 11:21:03;;;;;;;2.92;2.30;;;;;;;28.00;29.80;100080.00;1742079;80;21074;-73
2021/09/15 11:23:30;;;;;;;4.17;2.05;;;;;;;28.00;29.29;100074.55;1701415;82;21727;-72
2021/09/15 11:25:58;;;;;;;2.27;2.02;;;;;;;28.02;29.41;100078.63;1668473;83;21097;-73
2021/09/15 11:28:24;;;;;;;2.50;2.30;;;;;;;28.04;28.36;100073.70;1691295;82;21053;-73
2021/09/15 11:30:59;;;;;;;3.08;2.15;;;;;;;28.09;28.37;100077.55;1743351;80;21129;-71
2021/09/15 11:33:37;;;;;;;3.62;2.20;;;;;;;28.11;27.22;100072.62;1741155;80;21094;-73
2021/09/15 11:36:08;;;;;;;2.92;2.60;;;;;;;28.14;26.79;100065.22;1699144;82;21546;-75
2021/09/15 11:38:41;;;;;;;4.05;2.67;;;;;;;28.19;27.64;100062.48;1742801;81;22183;-71
2021/09/15 11:41:16;;;;;;;3.83;2.30;;;;;;;28.24;27.50;100067.95;1704668;82;21115;-73
2021/09/15 11:43:45;;;;;;;4.62;2.60;;;;;;;28.27;27.41;100064.64;1699718;82;21038;-73
2021/09/15 11:46:15;;;;;;;4.75;2.65;;;;;;;28.33;27.22;100055.88;1731131;82;21658;-71
2021/09/15 11:48:42;;;;;;;3.80;2.22;;;;;;;28.39;26.79;100054.77;1741007;81;21306;-70